createdAt,value
2022-12-28T00:02:24.060Z,100957.81
2022-12-28T00:04:52.405Z,100950.44
2022-12-28T00:07:20.772Z,100936.44
2022-12-28T00:09:50.482Z,100945.63
2022-12-28T00:12:18.879Z,100933.72
2022-12-28T00:14:47.641Z,100935.34
2022-12-28T00:17:16.046Z,100921.00
2022-12-28T00:19:44.383Z,100932.16
2022-12-28T00:22:12.784Z,100915.38
2022-12-28T00:24:41.162Z,100916.75
2022-12-28T00:27:11.047Z,100920.34
2022-12-28T00:29:39.402Z,100911.69
2022-12-28T00:32:07.811Z,100911.44
2022-12-28T00:34:36.200Z,100907.84
2022-12-28T00:37:11.093Z,100918.81
2022-12-28T00:39:42.238Z,100911.22
2022-12-28T00:42:12.273Z,100908.78
2022-12-28T00:44:40.761Z,100916.09
2022-12-28T00:47:09.134Z,100908.47
2022-12-28T00:49:37.489Z,100896.13
2022-12-28T00:52:06.238Z,100900.66
2022-12-28T00:54:34.609Z,100886.81
2022-12-28T00:57:02.954Z,100883.81
2022-12-28T00:59:32.700Z,100877.25
2022-12-28T01:02:01.223Z,100866.41
2022-12-28T01:04:29.822Z,100855.78
2022-12-28T01:06:58.218Z,100849.03
2022-12-28T01:09:26.578Z,100828.66
2022-12-28T01:11:54.887Z,100840.31
2022-12-28T01:14:23.238Z,100848.19
2022-12-28T01:16:53.191Z,100847.06
2022-12-28T01:19:23.436Z,100827.72
2022-12-28T01:21:52.645Z,100824.56
2022-12-28T01:24:21.155Z,100824.50
2022-12-28T01:26:49.509Z,100819.41
2022-12-28T01:29:18.519Z,100825.63
2022-12-28T01:31:46.947Z,100822.34
2022-12-28T01:34:16.722Z,100813.09
2022-12-28T01:36:45.050Z,100802.75
2022-12-28T01:39:13.473Z,100805.00
2022-12-28T01:41:43.298Z,100802.75
2022-12-28T01:44:40.853Z,100810.34
2022-12-28T01:47:13.207Z,100799.41
2022-12-28T01:49:47.720Z,100801.34
2022-12-28T01:52:21.990Z,100797.53
2022-12-28T01:54:53.508Z,100783.66
2022-12-28T01:57:26.944Z,100790.50
2022-12-28T02:00:00.271Z,100779.94
2022-12-28T02:02:30.869Z,100781.84
2022-12-28T02:05:01.844Z,100757.16
2022-12-28T02:07:45.369Z,100768.00
2022-12-28T02:10:43.136Z,100750.13
2022-12-28T02:13:04.539Z,100745.88
2022-12-28T02:15:33.210Z,100732.78
2022-12-28T02:18:02.011Z,100727.66
2022-12-28T02:20:41.189Z,100732.38
2022-12-28T02:23:38.955Z,100724.78
2022-12-28T02:26:34.054Z,100713.44
2022-12-28T02:29:49.063Z,100706.97
2022-12-28T02:32:37.437Z,100689.66
2022-12-28T02:35:09.684Z,100675.63
2022-12-28T02:37:45.759Z,100677.00
2022-12-28T02:40:18.506Z,100677.63
2022-12-28T02:42:47.554Z,100675.78
2022-12-28T02:45:51.346Z,100672.00
2022-12-28T02:48:38.445Z,100671.22
2022-12-28T02:51:21.015Z,100669.06
2022-12-28T02:54:05.746Z,100644.41
2022-12-28T02:56:43.138Z,100643.31
2022-12-28T02:59:35.751Z,100648.22
2022-12-28T03:02:20.074Z,100640.63
2022-12-28T03:05:01.331Z,100634.94
2022-12-28T03:07:56.496Z,100631.44
2022-12-28T03:10:29.832Z,100624.09
2022-12-28T03:13:04.263Z,100625.19
2022-12-28T03:15:37.590Z,100622.75
2022-12-28T03:18:26.416Z,100632.00
2022-12-28T03:21:15.295Z,100623.28
2022-12-28T03:24:03.644Z,100602.91
2022-12-28T03:26:52.065Z,100602.59
2022-12-28T03:29:41.182Z,100602.53
2022-12-28T03:32:10.395Z,100602.81
2022-12-28T03:34:40.340Z,100605.78
2022-12-28T03:37:14.346Z,100599.50
2022-12-28T03:39:48.349Z,100592.69
2022-12-28T03:42:37.531Z,100593.75
2022-12-28T03:45:14.442Z,100582.66
2022-12-28T03:48:04.741Z,100592.38
2022-12-28T03:50:37.852Z,100581.00
2022-12-28T03:53:06.542Z,100572.88
2022-12-28T03:55:35.646Z,100572.59
2022-12-28T03:58:04.053Z,100568.78
2022-12-28T04:00:33.288Z,100556.31
2022-12-28T04:03:01.681Z,100550.88
2022-12-28T04:05:30.243Z,100549.28
2022-12-28T04:07:59.909Z,100546.00
2022-12-28T04:10:28.209Z,100543.84
2022-12-28T04:12:57.525Z,100546.56
2022-12-28T04:15:25.866Z,100532.69
2022-12-28T04:17:54.337Z,100534.59
2022-12-28T04:20:22.775Z,100531.91
2022-12-28T04:22:51.095Z,100521.03
2022-12-28T04:25:20.863Z,100518.84
2022-12-28T04:27:49.207Z,100522.13
2022-12-28T04:30:17.753Z,100527.31
2022-12-28T04:32:46.074Z,100529.75
2022-12-28T04:35:14.427Z,100517.25
2022-12-28T04:37:42.779Z,100519.97
2022-12-28T04:40:12.021Z,100535.16
2022-12-28T04:42:41.832Z,100516.72
2022-12-28T04:45:11.040Z,100513.16
2022-12-28T04:47:39.390Z,100505.56
2022-12-28T04:50:08.128Z,100497.16
2022-12-28T04:52:36.443Z,100498.78
2022-12-28T04:55:05.550Z,100495.81
2022-12-28T04:57:33.844Z,100519.16
2022-12-28T05:00:03.594Z,100493.91
2022-12-28T05:02:32.581Z,100493.63
2022-12-28T05:05:00.986Z,100486.56
2022-12-28T05:07:29.791Z,100483.06
2022-12-28T05:09:58.267Z,100483.88
2022-12-28T05:12:26.797Z,100490.09
2022-12-28T05:14:55.094Z,100485.50
2022-12-28T05:17:24.773Z,100485.78
2022-12-28T05:19:53.218Z,100491.47
2022-12-28T05:22:21.682Z,100490.94
2022-12-28T05:24:50.033Z,100497.19
2022-12-28T05:27:18.436Z,100496.09
2022-12-28T05:29:46.710Z,100490.13
2022-12-28T05:32:15.184Z,100491.22
2022-12-28T05:34:45.212Z,100490.94
2022-12-28T05:37:20.125Z,100485.78
2022-12-28T05:39:50.324Z,100484.72
2022-12-28T05:42:18.654Z,100482.00
2022-12-28T05:44:47.216Z,100485.53
2022-12-28T05:47:15.518Z,100472.78
2022-12-28T05:49:45.210Z,100483.34
2022-12-28T05:52:13.682Z,100476.03
2022-12-28T05:54:41.973Z,100485.53
2022-12-28T05:57:10.315Z,100471.97
2022-12-28T05:59:38.670Z,100469.25
2022-12-28T06:02:07.029Z,100467.34
2022-12-28T06:04:35.535Z,100479.03
2022-12-28T06:07:05.237Z,100468.19
2022-12-28T06:09:34.058Z,100470.59
2022-12-28T06:12:04.692Z,100467.34
2022-12-28T06:14:33.040Z,100474.69
2022-12-28T06:17:01.546Z,100461.13
2022-12-28T06:19:29.870Z,100472.53
2022-12-28T06:21:58.444Z,100455.66
2022-12-28T06:24:28.104Z,100448.88
2022-12-28T06:26:56.439Z,100436.38
2022-12-28T06:29:24.869Z,100451.59
2022-12-28T06:31:54.664Z,100453.22
2022-12-28T06:34:23.081Z,100451.09
2022-12-28T06:36:52.476Z,100457.34
2022-12-28T06:39:20.789Z,100455.44
2022-12-28T06:41:50.638Z,100453.25
2022-12-28T06:44:18.930Z,100458.69
2022-12-28T06:46:47.282Z,100460.88
2022-12-28T06:49:15.577Z,100457.34
2022-12-28T06:51:43.888Z,100452.19
2022-12-28T06:54:12.437Z,100451.63
2022-12-28T06:56:41.385Z,100450.56
2022-12-28T06:59:11.622Z,100447.81
2022-12-28T07:01:44.386Z,100435.56
2022-12-28T07:04:13.589Z,100434.75
2022-12-28T07:06:44.027Z,100438.84
2022-12-28T07:09:15.142Z,100441.56
2022-12-28T07:11:44.287Z,100432.59
2022-12-28T07:14:13.973Z,100439.63
2022-12-28T07:16:44.472Z,100441.81
2022-12-28T07:19:12.912Z,100443.44
2022-12-28T07:21:41.581Z,100437.97
2022-12-28T07:24:10.378Z,100447.47
2022-12-28T07:26:39.226Z,100442.59
2022-12-28T07:29:09.455Z,100439.03
2022-12-28T07:31:45.125Z,100433.88
2022-12-28T07:34:15.966Z,100421.38
2022-12-28T07:36:44.742Z,100421.94
2022-12-28T07:39:13.233Z,100420.00
2022-12-28T07:41:41.820Z,100436.31
2022-12-28T07:44:10.324Z,100429.78
2022-12-28T07:46:40.194Z,100431.41
2022-12-28T07:49:08.766Z,100428.69
2022-12-28T07:51:39.405Z,100418.91
2022-12-28T07:54:08.411Z,100416.47
2022-12-28T07:59:06.440Z,100414.28
2022-12-28T08:01:37.202Z,100421.63
2022-12-28T08:04:10.064Z,100424.31
2022-12-28T08:06:40.500Z,100421.63
2022-12-28T08:09:10.919Z,100421.88
2022-12-28T08:11:41.520Z,100421.59
2022-12-28T08:14:10.542Z,100423.22
2022-12-28T08:16:41.014Z,100418.84
2022-12-28T08:19:11.593Z,100429.72
2022-12-28T08:21:41.531Z,100422.63
2022-12-28T08:24:13.756Z,100431.31
2022-12-28T08:26:43.751Z,100427.50
2022-12-28T08:29:14.829Z,100425.63
2022-12-28T08:31:45.941Z,100419.63
2022-12-28T08:34:18.856Z,100425.06
2022-12-28T08:36:47.893Z,100427.25
2022-12-28T08:39:16.437Z,100426.69
2022-12-28T08:41:44.950Z,100431.59
2022-12-28T08:44:13.395Z,100428.84
2022-12-28T08:46:41.889Z,100434.03
2022-12-28T08:49:10.612Z,100426.13
2022-12-28T08:51:42.709Z,100432.09
2022-12-28T08:54:13.550Z,100419.88
2022-12-28T08:56:45.004Z,100429.38
2022-12-28T08:59:16.088Z,100420.69
2022-12-28T09:01:45.860Z,100427.22
2022-12-28T09:04:16.294Z,100426.94
2022-12-28T09:06:46.509Z,100425.28
2022-12-28T09:09:16.519Z,100427.41
2022-12-28T09:11:45.643Z,100428.75
2022-12-28T09:14:24.446Z,100427.94
2022-12-28T09:16:54.215Z,100429.56
2022-12-28T09:19:23.452Z,100429.56
2022-12-28T09:21:55.150Z,100426.31
2022-12-28T09:24:24.068Z,100424.13
2022-12-28T09:26:54.467Z,100437.16
2022-12-28T09:29:23.019Z,100436.06
2022-12-28T09:31:51.417Z,100429.53
2022-12-28T09:34:37.357Z,100436.06
2022-12-28T09:37:08.568Z,100432.75
2022-12-28T09:39:37.334Z,100437.66
2022-12-28T09:42:11.887Z,100430.56
2022-12-28T09:44:48.629Z,100430.56
2022-12-28T09:47:26.288Z,100427.81
2022-12-28T09:50:07.202Z,100422.94
2022-12-28T09:52:49.556Z,100423.75
2022-12-28T09:55:19.861Z,100417.97
2022-12-28T09:57:51.506Z,100428.31
2022-12-28T10:00:22.582Z,100409.22
2022-12-28T10:02:55.395Z,100413.81
2022-12-28T10:05:24.405Z,100408.91
2022-12-28T10:07:55.508Z,100410.25
2022-12-28T10:10:25.067Z,100397.16
2022-12-28T10:12:53.946Z,100401.44
2022-12-28T10:15:24.070Z,100400.34
2022-12-28T10:17:52.417Z,100387.22
2022-12-28T10:20:23.038Z,100386.59
2022-12-28T10:22:56.097Z,100390.94
2022-12-28T10:25:26.137Z,100386.72
2022-12-28T10:27:55.497Z,100379.38
2022-12-28T10:30:26.997Z,100372.78
2022-12-28T10:33:02.480Z,100368.38
2022-12-28T10:35:39.125Z,100350.66
2022-12-28T10:38:22.250Z,100375.94
2022-12-28T10:41:00.470Z,100367.13
2022-12-28T10:43:31.102Z,100378.03
2022-12-28T10:46:04.517Z,100360.22
2022-12-28T10:48:40.396Z,100368.69
2022-12-28T10:51:14.593Z,100354.75
2022-12-28T10:53:46.510Z,100371.13
2022-12-28T10:56:26.175Z,100362.53
2022-12-28T10:58:56.698Z,100350.88
2022-12-28T11:01:27.792Z,100347.84
2022-12-28T11:04:01.901Z,100346.63
2022-12-28T11:06:31.600Z,100318.97
2022-12-28T11:09:16.871Z,100322.53
2022-12-28T11:11:47.568Z,100332.31
2022-12-28T11:14:30.512Z,100328.97
2022-12-28T11:16:59.373Z,100316.94
2022-12-28T11:19:27.762Z,100321.75
2022-12-28T11:21:56.380Z,100309.16
2022-12-28T11:24:28.082Z,100314.97
2022-12-28T11:26:58.928Z,100304.56
2022-12-28T11:29:28.098Z,100311.56
2022-12-28T11:32:02.598Z,100303.59
2022-12-28T11:34:32.658Z,100295.56
2022-12-28T11:37:01.408Z,100296.06
2022-12-28T11:39:48.440Z,100294.03
2022-12-28T11:42:50.410Z,100280.28
2022-12-28T11:45:54.986Z,100297.66
2022-12-28T11:48:46.292Z,100288.19
2022-12-28T11:51:17.903Z,100283.94
2022-12-28T11:53:54.887Z,100275.75
2022-12-28T11:56:26.136Z,100281.16
2022-12-28T11:59:22.909Z,100276.19
2022-12-28T12:01:59.549Z,100277.31
2022-12-28T12:04:41.313Z,100283.28
2022-12-28T12:07:43.492Z,100276.78
2022-12-28T12:10:28.946Z,100280.63
2022-12-28T12:13:02.813Z,100271.59
2022-12-28T12:15:41.691Z,100281.69
2022-12-28T12:18:20.930Z,100277.88
2022-12-28T12:21:03.221Z,100287.94
2022-12-28T12:23:42.438Z,100276.97
2022-12-28T12:26:22.111Z,100284.69
2022-12-28T12:28:55.438Z,100277.09
2022-12-28T12:31:30.554Z,100266.22
2022-12-28T12:34:07.428Z,100269.03
2022-12-28T12:37:13.192Z,100260.91
2022-12-28T12:40:05.060Z,100254.44
2022-12-28T12:42:49.935Z,100253.38
2022-12-28T12:45:29.177Z,100253.09
2022-12-28T12:48:14.008Z,100250.13
2022-12-28T12:51:03.438Z,100252.34
2022-12-28T12:53:51.835Z,100252.16
2022-12-28T12:56:37.048Z,100256.75
2022-12-28T12:59:23.385Z,100257.31
2022-12-28T13:01:59.608Z,100251.88
2022-12-28T13:04:33.362Z,100251.22
2022-12-28T13:07:06.572Z,100245.50
2022-12-28T13:09:37.258Z,100258.34
2022-12-28T13:12:15.520Z,100242.81
2022-12-28T13:14:45.539Z,100237.38
2022-12-28T13:17:20.031Z,100248.72
2022-12-28T13:19:49.068Z,100245.47
2022-12-28T13:22:28.706Z,100237.81
2022-12-28T13:24:59.809Z,100226.16
2022-12-28T13:27:34.569Z,100234.63
2022-12-28T13:30:04.188Z,100226.22
2022-12-28T13:32:38.559Z,100216.75
2022-12-28T13:35:18.702Z,100211.88
2022-12-28T13:38:00.318Z,100198.56
2022-12-28T13:40:30.530Z,100201.56
2022-12-28T13:43:18.794Z,100194.81
2022-12-28T13:45:52.921Z,100191.50
2022-12-28T13:48:23.833Z,100190.47
2022-12-28T13:50:53.406Z,100182.59
2022-12-28T13:53:26.442Z,100180.91
2022-12-28T13:55:58.282Z,100177.16
2022-12-28T13:58:32.996Z,100179.06
2022-12-28T14:01:08.295Z,100163.53
2022-12-28T14:03:44.615Z,100167.28
2022-12-28T14:06:17.295Z,100161.63
2022-12-28T14:08:46.536Z,100168.69
2022-12-28T14:11:15.345Z,100146.31
2022-12-28T14:13:44.021Z,100142.50
2022-12-28T14:16:13.065Z,100139.13
2022-12-28T14:18:43.773Z,100146.94
2022-12-28T14:21:12.717Z,100145.84
2022-12-28T14:23:41.482Z,100144.09
2022-12-28T14:26:11.799Z,100145.91
2022-12-28T14:28:47.851Z,100128.19
2022-12-28T14:31:27.849Z,100125.84
2022-12-28T14:34:00.141Z,100129.91
2022-12-28T14:36:32.148Z,100129.53
2022-12-28T14:39:05.228Z,100115.41
2022-12-28T14:41:37.329Z,100117.03
2022-12-28T14:44:14.184Z,100107.66
2022-12-28T14:46:43.816Z,100093.59
2022-12-28T14:49:37.544Z,100103.91
2022-12-28T14:52:34.834Z,100097.34
2022-12-28T14:55:34.123Z,100084.72
2022-12-28T14:58:15.393Z,100083.59
2022-12-28T15:00:57.869Z,100079.75
2022-12-28T15:03:29.245Z,100072.59
2022-12-28T15:06:02.443Z,100071.28
2022-12-28T15:08:31.345Z,100075.03
2022-12-28T15:11:01.268Z,100067.97
2022-12-28T15:13:29.902Z,100061.72
2022-12-28T15:16:01.141Z,100045.94
2022-12-28T15:18:31.052Z,100052.44
2022-12-28T15:21:04.885Z,100050.00
2022-12-28T15:23:33.767Z,100043.16
2022-12-28T15:26:07.300Z,100034.16
2022-12-28T15:28:36.082Z,100026.50
2022-12-28T15:31:07.037Z,100039.44
2022-12-28T15:33:36.108Z,100024.19
2022-12-28T15:36:13.508Z,100016.19
2022-12-28T15:38:45.993Z,100015.59
2022-12-28T15:41:34.239Z,100008.72
2022-12-28T15:44:03.048Z,100003.34
2022-12-28T15:46:31.639Z,100005.69
2022-12-28T15:49:02.958Z,99994.41
2022-12-28T15:51:32.880Z,99983.38
2022-12-28T15:54:01.594Z,99984.41
2022-12-28T15:56:32.422Z,99993.09
2022-12-28T15:59:02.712Z,99987.72
2022-12-28T16:01:32.708Z,99981.69
2022-12-28T16:04:03.349Z,99977.34
2022-12-28T16:06:40.040Z,99968.75
2022-12-28T16:09:12.826Z,99961.19
2022-12-28T16:11:42.871Z,99964.94
2022-12-28T16:14:15.262Z,99948.09
2022-12-28T16:16:44.704Z,99942.72
2022-12-28T16:19:14.683Z,99940.47
2022-12-28T16:21:44.909Z,99937.44
2022-12-28T16:24:13.712Z,99947.84
2022-12-28T16:26:42.172Z,99947.47
2022-12-28T16:29:10.760Z,99938.97
2022-12-28T16:31:41.066Z,99930.78
2022-12-28T16:34:12.707Z,99913.00
2022-12-28T16:36:41.621Z,99923.31
2022-12-28T16:39:14.714Z,99909.47
2022-12-28T16:41:43.670Z,99914.41
2022-12-28T16:44:15.277Z,99911.38
2022-12-28T16:46:44.200Z,99893.41
2022-12-28T16:49:13.252Z,99881.69
2022-12-28T16:51:43.806Z,99875.59
2022-12-28T16:54:16.399Z,99876.63
2022-12-28T16:56:45.583Z,99868.13
2022-12-28T16:59:16.291Z,99857.41
2022-12-28T17:01:45.534Z,99858.41
2022-12-28T17:04:14.209Z,99856.59
2022-12-28T17:06:44.420Z,99848.22
2022-12-28T17:09:14.935Z,99849.34
2022-12-28T17:11:43.742Z,99854.91
2022-12-28T17:14:13.066Z,99847.53
2022-12-28T17:16:41.850Z,99842.88
2022-12-28T17:19:10.375Z,99838.84
2022-12-28T17:21:39.429Z,99840.97
2022-12-28T17:24:08.490Z,99833.53
2022-12-28T17:26:38.546Z,99826.06
2022-12-28T17:29:07.317Z,99823.84
2022-12-28T17:31:36.018Z,99825.69
2022-12-28T17:34:05.198Z,99837.09
2022-12-28T17:36:34.044Z,99822.53
2022-12-28T17:39:02.512Z,99821.53
2022-12-28T17:41:31.074Z,99828.78
2022-12-28T17:44:02.129Z,99819.59
2022-12-28T17:46:32.863Z,99821.31
2022-12-28T17:49:01.603Z,99828.16
2022-12-28T17:51:30.115Z,99826.44
2022-12-28T17:53:58.671Z,99821.41
2022-12-28T17:56:27.779Z,99815.44
2022-12-28T17:58:58.464Z,99812.91
2022-12-28T18:01:28.989Z,99815.50
2022-12-28T18:03:58.487Z,99813.38
2022-12-28T18:06:27.212Z,99803.09
2022-12-28T18:08:55.692Z,99801.88
2022-12-28T18:11:24.354Z,99786.50
2022-12-28T18:13:56.035Z,99792.53
2022-12-28T18:16:24.657Z,99789.16
2022-12-28T18:18:54.848Z,99791.72
2022-12-28T18:21:26.875Z,99791.91
2022-12-28T18:23:55.355Z,99782.84
2022-12-28T18:26:26.097Z,99785.25
2022-12-28T18:28:55.109Z,99774.78
2022-12-28T18:31:25.025Z,99764.91
2022-12-28T18:33:55.098Z,99762.09
2022-12-28T18:36:24.212Z,99771.97
2022-12-28T18:38:52.739Z,99770.34
2022-12-28T18:41:22.373Z,99765.53
2022-12-28T18:43:52.190Z,99759.47
2022-12-28T18:46:20.873Z,99740.53
2022-12-28T18:48:49.550Z,99752.09
2022-12-28T18:51:19.611Z,99743.25
2022-12-28T18:53:50.041Z,99743.84
2022-12-28T18:56:20.316Z,99740.53
2022-12-28T18:58:52.879Z,99734.44
2022-12-28T19:02:04.791Z,99741.13
2022-12-28T19:04:12.863Z,99720.75
2022-12-28T19:06:43.851Z,99726.56
2022-12-28T19:09:13.201Z,99725.97
2022-12-28T19:11:42.064Z,99710.25
2022-12-28T19:14:15.027Z,99708.63
2022-12-28T19:16:44.967Z,99707.63
2022-12-28T19:19:16.819Z,99702.78
2022-12-28T19:21:46.815Z,99699.16
2022-12-28T19:24:16.975Z,99713.88
2022-12-28T19:26:46.661Z,99685.94
2022-12-28T19:29:16.592Z,99688.06
2022-12-28T19:31:45.471Z,99678.59
2022-12-28T19:34:15.696Z,99678.59
2022-12-28T19:36:44.163Z,99684.25
2022-12-28T19:39:14.034Z,99670.34
2022-12-28T19:41:42.614Z,99666.31
2022-12-28T19:44:11.086Z,99671.75
2022-12-28T19:46:39.694Z,99664.41
2022-12-28T19:49:08.227Z,99676.69
2022-12-28T19:51:36.858Z,99657.03
2022-12-28T19:54:05.433Z,99675.56
2022-12-28T19:56:35.311Z,99671.16
2022-12-28T19:59:06.970Z,99663.81
2022-12-28T20:01:39.021Z,99653.13
2022-12-28T20:04:13.352Z,99665.63
2022-12-28T20:06:44.290Z,99663.50
2022-12-28T20:09:14.062Z,99657.47
2022-12-28T20:11:44.926Z,99638.94
2022-12-28T20:14:19.185Z,99648.41
2022-12-28T20:16:52.316Z,99647.00
2022-12-28T20:19:20.772Z,99643.38
2022-12-28T20:21:50.509Z,99626.25
2022-12-28T20:24:21.789Z,99631.56
2022-12-28T20:26:56.395Z,99617.97
2022-12-28T20:29:28.471Z,99622.81
2022-12-28T20:31:57.290Z,99614.06
2022-12-28T20:34:26.181Z,99614.47
2022-12-28T20:36:54.634Z,99601.66
2022-12-28T20:39:23.128Z,99596.50
2022-12-28T20:42:10.420Z,99602.47
2022-12-28T20:44:39.401Z,99601.88
2022-12-28T20:47:07.940Z,99601.25
2022-12-28T20:49:37.103Z,99609.03
2022-12-28T20:52:05.682Z,99584.69
2022-12-28T20:54:34.380Z,99605.25
2022-12-28T20:57:04.515Z,99608.50
2022-12-28T20:59:33.863Z,99607.88
2022-12-28T21:02:02.441Z,99590.13
2022-12-28T21:04:31.226Z,99597.38
2022-12-28T21:06:59.686Z,99603.84
2022-12-28T21:09:28.302Z,99593.16
2022-12-28T21:11:56.825Z,99598.16
2022-12-28T21:14:26.721Z,99589.56
2022-12-28T21:16:55.230Z,99588.97
2022-12-28T21:19:23.920Z,99585.72
2022-12-28T21:21:52.451Z,99594.09
2022-12-28T21:24:20.938Z,99594.72
2022-12-28T21:26:49.403Z,99595.22
2022-12-28T21:29:23.858Z,99589.66
2022-12-28T21:31:56.514Z,99580.47
2022-12-28T21:34:27.725Z,99581.16
2022-12-28T21:37:17.680Z,99581.38
2022-12-28T21:39:46.526Z,99600.44
2022-12-28T21:42:15.239Z,99562.59
2022-12-28T21:44:43.684Z,99562.78
2022-12-28T21:47:13.903Z,99570.84
2022-12-28T21:49:43.929Z,99563.66
2022-12-28T21:52:13.368Z,99569.00
2022-12-28T21:54:45.326Z,99565.06
2022-12-28T21:57:14.560Z,99562.09
2022-12-28T21:59:43.631Z,99571.50
2022-12-28T22:02:34.204Z,99550.81
2022-12-28T22:05:18.085Z,99556.31
2022-12-28T22:07:47.654Z,99543.50
2022-12-28T22:10:33.993Z,99543.66
2022-12-28T22:13:02.973Z,99540.69
2022-12-28T22:15:49.303Z,99536.56
2022-12-28T22:18:52.749Z,99536.09
2022-12-28T22:21:11.722Z,99529.19
2022-12-28T22:23:41.535Z,99520.41
2022-12-28T22:26:14.333Z,99520.88
2022-12-28T22:28:43.005Z,99522.50
2022-12-28T22:31:11.430Z,99525.72
2022-12-28T22:33:41.227Z,99525.22
2022-12-28T22:36:11.258Z,99523.25
2022-12-28T22:38:39.941Z,99524.81
2022-12-28T22:41:08.873Z,99512.47
2022-12-28T22:43:38.327Z,99516.94
2022-12-28T22:46:09.060Z,99524.63
2022-12-28T22:48:37.940Z,99515.94
2022-12-28T22:51:11.643Z,99523.31
2022-12-28T22:53:40.815Z,99509.56
2022-12-28T22:56:12.994Z,99524.13
2022-12-28T22:58:41.687Z,99514.66
2022-12-28T23:01:13.240Z,99517.25
2022-12-28T23:03:44.370Z,99524.63
2022-12-28T23:06:16.530Z,99525.56
2022-12-28T23:08:45.883Z,99516.56
2022-12-28T23:11:39.441Z,99512.13
2022-12-28T23:14:30.263Z,99516.94
2022-12-28T23:17:00.183Z,99504.91
2022-12-28T23:19:46.955Z,99505.09
2022-12-28T23:22:36.321Z,99505.91
2022-12-28T23:25:24.033Z,99513.47
2022-12-28T23:27:52.821Z,99504.78
2022-12-28T23:30:23.036Z,99498.09
2022-12-28T23:32:52.632Z,99499.69
2022-12-28T23:35:22.610Z,99502.28
2022-12-28T23:37:52.844Z,99498.28
2022-12-28T23:40:23.260Z,99492.03
2022-12-28T23:42:54.000Z,99480.53
2022-12-28T23:45:22.808Z,99477.16
2022-12-28T23:47:53.669Z,99467.22
2022-12-28T23:50:22.627Z,99471.75
2022-12-28T23:52:52.435Z,99476.56
2022-12-28T23:55:20.829Z,99455.22
2022-12-28T23:57:49.298Z,99445.28
